sensor_id;sensor_type;location;lat;lon;timestamp;P1;durP1;ratioP1;P2;durP2;ratioP2
37411;SDS011;23278;52.110;6.050;2023-05-10T00:00:28;5.18;;;4.68;;
37411;SDS011;23278;52.110;6.050;2023-05-10T00:02:54;4.80;;;4.30;;
37411;SDS011;23278;52.110;6.050;2023-05-10T00:05:20;6.68;;;5.57;;
37411;SDS011;23278;52.110;6.050;2023-05-10T00:07:45;6.32;;;5.55;;
37411;SDS011;23278;52.110;6.050;2023-05-10T00:10:11;5.25;;;4.75;;
37411;SDS011;23278;52.110;6.050;2023-05-10T00:12:37;6.60;;;5.70;;
37411;SDS011;23278;52.110;6.050;2023-05-10T00:15:03;5.22;;;4.82;;
37411;SDS011;23278;52.110;6.050;2023-05-10T00:17:30;6.05;;;5.55;;
37411;SDS011;23278;52.110;6.050;2023-05-10T00:19:56;5.90;;;5.28;;
37411;SDS011;23278;52.110;6.050;2023-05-10T00:22:22;6.47;;;5.88;;
37411;SDS011;23278;52.110;6.050;2023-05-10T00:24:48;4.97;;;4.57;;
37411;SDS011;23278;52.110;6.050;2023-05-10T00:27:15;5.78;;;5.28;;
37411;SDS011;23278;52.110;6.050;2023-05-10T00:29:41;6.20;;;5.60;;
37411;SDS011;23278;52.110;6.050;2023-05-10T00:32:07;6.30;;;5.70;;
37411;SDS011;23278;52.110;6.050;2023-05-10T00:34:33;7.55;;;6.85;;
37411;SDS011;23278;52.110;6.050;2023-05-10T00:36:59;9.20;;;8.30;;
37411;SDS011;23278;52.110;6.050;2023-05-10T00:39:25;7.38;;;6.68;;
37411;SDS011;23278;52.110;6.050;2023-05-10T00:41:53;7.30;;;6.60;;
37411;SDS011;23278;52.110;6.050;2023-05-10T00:44:20;7.25;;;6.55;;
37411;SDS011;23278;52.110;6.050;2023-05-10T00:46:46;7.00;;;6.30;;
37411;SDS011;23278;52.110;6.050;2023-05-10T00:49:14;8.40;;;7.60;;
37411;SDS011;23278;52.110;6.050;2023-05-10T00:51:41;10.30;;;8.65;;
37411;SDS011;23278;52.110;6.050;2023-05-10T00:54:09;10.13;;;9.23;;
37411;SDS011;23278;52.110;6.050;2023-05-10T00:56:37;10.18;;;9.18;;
37411;SDS011;23278;52.110;6.050;2023-05-10T00:59:03;8.07;;;7.28;;
37411;SDS011;23278;52.110;6.050;2023-05-10T01:01:29;11.63;;;10.20;;
37411;SDS011;23278;52.110;6.050;2023-05-10T01:03:55;13.73;;;10.23;;
37411;SDS011;23278;52.110;6.050;2023-05-10T01:06:22;11.48;;;9.90;;
37411;SDS011;23278;52.110;6.050;2023-05-10T01:08:48;12.68;;;11.25;;
37411;SDS011;23278;52.110;6.050;2023-05-10T01:11:14;13.45;;;11.95;;
37411;SDS011;23278;52.110;6.050;2023-05-10T01:13:41;12.95;;;11.57;;
37411;SDS011;23278;52.110;6.050;2023-05-10T01:16:10;11.13;;;10.05;;
37411;SDS011;23278;52.110;6.050;2023-05-10T01:18:36;12.00;;;10.32;;
37411;SDS011;23278;52.110;6.050;2023-05-10T01:21:09;12.07;;;10.32;;
37411;SDS011;23278;52.110;6.050;2023-05-10T01:34:34;12.15;;;10.50;;
37411;SDS011;23278;52.110;6.050;2023-05-10T01:42:17;13.32;;;10.65;;
37411;SDS011;23278;52.110;6.050;2023-05-10T01:45:06;10.47;;;8.87;;
37411;SDS011;23278;52.110;6.050;2023-05-10T01:47:40;16.80;;;12.45;;
37411;SDS011;23278;52.110;6.050;2023-05-10T01:50:15;13.07;;;11.60;;
37411;SDS011;23278;52.110;6.050;2023-05-10T01:52:44;16.80;;;13.60;;
37411;SDS011;23278;52.110;6.050;2023-05-10T01:55:18;15.93;;;13.00;;
37411;SDS011;23278;52.110;6.050;2023-05-10T01:57:50;17.37;;;14.23;;
37411;SDS011;23278;52.110;6.050;2023-05-10T02:00:21;16.45;;;14.00;;
37411;SDS011;23278;52.110;6.050;2023-05-10T02:02:50;16.77;;;14.93;;
37411;SDS011;23278;52.110;6.050;2023-05-10T02:05:18;19.63;;;14.10;;
37411;SDS011;23278;52.110;6.050;2023-05-10T02:07:46;25.05;;;18.33;;
37411;SDS011;23278;52.110;6.050;2023-05-10T02:10:13;25.77;;;18.73;;
37411;SDS011;23278;52.110;6.050;2023-05-10T02:12:42;31.17;;;21.30;;
37411;SDS011;23278;52.110;6.050;2023-05-10T02:15:10;24.33;;;18.60;;
37411;SDS011;23278;52.110;6.050;2023-05-10T02:17:39;30.00;;;19.13;;
37411;SDS011;23278;52.110;6.050;2023-05-10T02:20:07;29.63;;;20.15;;
37411;SDS011;23278;52.110;6.050;2023-05-10T02:22:35;31.65;;;22.65;;
37411;SDS011;23278;52.110;6.050;2023-05-10T02:25:03;28.77;;;20.48;;
37411;SDS011;23278;52.110;6.050;2023-05-10T02:27:30;32.92;;;21.90;;
37411;SDS011;23278;52.110;6.050;2023-05-10T02:29:56;35.22;;;23.42;;
37411;SDS011;23278;52.110;6.050;2023-05-10T02:32:24;32.15;;;22.05;;
37411;SDS011;23278;52.110;6.050;2023-05-10T02:34:52;31.10;;;20.50;;
37411;SDS011;23278;52.110;6.050;2023-05-10T02:37:20;30.23;;;20.70;;
37411;SDS011;23278;52.110;6.050;2023-05-10T02:39:48;35.35;;;23.10;;
37411;SDS011;23278;52.110;6.050;2023-05-10T02:42:19;32.10;;;19.83;;
37411;SDS011;23278;52.110;6.050;2023-05-10T02:44:52;34.95;;;23.42;;
37411;SDS011;23278;52.110;6.050;2023-05-10T02:47:24;29.88;;;20.45;;
37411;SDS011;23278;52.110;6.050;2023-05-10T02:49:51;35.17;;;22.83;;
37411;SDS011;23278;52.110;6.050;2023-05-10T02:52:19;33.28;;;22.42;;
37411;SDS011;23278;52.110;6.050;2023-05-10T02:54:50;36.67;;;24.05;;
37411;SDS011;23278;52.110;6.050;2023-05-10T02:57:22;39.33;;;24.95;;
37411;SDS011;23278;52.110;6.050;2023-05-10T02:59:52;37.50;;;23.20;;
37411;SDS011;23278;52.110;6.050;2023-05-10T03:02:19;39.88;;;24.98;;
37411;SDS011;23278;52.110;6.050;2023-05-10T03:04:46;37.45;;;25.27;;
37411;SDS011;23278;52.110;6.050;2023-05-10T03:07:12;39.45;;;24.80;;
37411;SDS011;23278;52.110;6.050;2023-05-10T03:09:39;35.33;;;24.00;;
37411;SDS011;23278;52.110;6.050;2023-05-10T03:12:11;42.65;;;27.05;;
37411;SDS011;23278;52.110;6.050;2023-05-10T03:20:43;38.92;;;26.33;;
37411;SDS011;23278;52.110;6.050;2023-05-10T03:25:58;42.00;;;26.80;;
37411;SDS011;23278;52.110;6.050;2023-05-10T03:28:25;43.63;;;28.27;;
37411;SDS011;23278;52.110;6.050;2023-05-10T03:30:53;41.45;;;25.73;;
37411;SDS011;23278;52.110;6.050;2023-05-10T03:33:20;33.40;;;23.02;;
37411;SDS011;23278;52.110;6.050;2023-05-10T03:35:46;38.47;;;25.15;;
37411;SDS011;23278;52.110;6.050;2023-05-10T03:38:13;39.75;;;25.45;;
37411;SDS011;23278;52.110;6.050;2023-05-10T03:40:39;42.72;;;27.48;;
37411;SDS011;23278;52.110;6.050;2023-05-10T03:43:06;40.85;;;26.95;;
37411;SDS011;23278;52.110;6.050;2023-05-10T03:45:32;40.42;;;25.90;;
37411;SDS011;23278;52.110;6.050;2023-05-10T03:47:58;40.90;;;28.40;;
37411;SDS011;23278;52.110;6.050;2023-05-10T03:50:24;39.35;;;25.30;;
37411;SDS011;23278;52.110;6.050;2023-05-10T03:52:52;38.55;;;25.33;;
37411;SDS011;23278;52.110;6.050;2023-05-10T03:55:18;37.45;;;24.88;;
37411;SDS011;23278;52.110;6.050;2023-05-10T03:57:44;43.97;;;26.63;;
37411;SDS011;23278;52.110;6.050;2023-05-10T04:00:11;41.08;;;26.45;;
37411;SDS011;23278;52.110;6.050;2023-05-10T04:02:40;40.45;;;25.75;;
37411;SDS011;23278;52.110;6.050;2023-05-10T04:05:09;47.33;;;28.17;;
37411;SDS011;23278;52.110;6.050;2023-05-10T04:07:35;42.63;;;27.77;;
37411;SDS011;23278;52.110;6.050;2023-05-10T04:10:01;40.35;;;25.60;;
37411;SDS011;23278;52.110;6.050;2023-05-10T04:12:27;35.80;;;24.05;;
37411;SDS011;23278;52.110;6.050;2023-05-10T04:14:53;42.35;;;25.42;;
37411;SDS011;23278;52.110;6.050;2023-05-10T04:17:19;41.95;;;26.25;;
37411;SDS011;23278;52.110;6.050;2023-05-10T04:19:45;40.78;;;25.15;;
37411;SDS011;23278;52.110;6.050;2023-05-10T04:22:11;38.95;;;25.40;;
37411;SDS011;23278;52.110;6.050;2023-05-10T04:24:37;40.08;;;25.08;;
37411;SDS011;23278;52.110;6.050;2023-05-10T04:27:03;40.55;;;24.88;;
37411;SDS011;23278;52.110;6.050;2023-05-10T04:29:29;37.58;;;24.70;;
37411;SDS011;23278;52.110;6.050;2023-05-10T04:31:55;32.00;;;22.38;;
37411;SDS011;23278;52.110;6.050;2023-05-10T04:34:21;38.92;;;25.65;;
37411;SDS011;23278;52.110;6.050;2023-05-10T04:36:47;37.55;;;24.05;;
37411;SDS011;23278;52.110;6.050;2023-05-10T04:39:13;41.15;;;26.02;;
37411;SDS011;23278;52.110;6.050;2023-05-10T04:41:39;44.30;;;27.88;;
37411;SDS011;23278;52.110;6.050;2023-05-10T04:44:05;39.35;;;25.15;;
37411;SDS011;23278;52.110;6.050;2023-05-10T04:46:31;45.15;;;26.90;;
37411;SDS011;23278;52.110;6.050;2023-05-10T04:48:57;44.65;;;26.92;;
37411;SDS011;23278;52.110;6.050;2023-05-10T04:51:23;42.63;;;27.33;;
37411;SDS011;23278;52.110;6.050;2023-05-10T04:53:49;46.42;;;27.92;;
37411;SDS011;23278;52.110;6.050;2023-05-10T04:56:16;46.50;;;27.52;;
37411;SDS011;23278;52.110;6.050;2023-05-10T04:58:42;51.15;;;27.45;;
37411;SDS011;23278;52.110;6.050;2023-05-10T05:01:08;43.95;;;25.30;;
37411;SDS011;23278;52.110;6.050;2023-05-10T05:03:35;49.35;;;26.80;;
37411;SDS011;23278;52.110;6.050;2023-05-10T05:06:02;43.33;;;26.15;;
37411;SDS011;23278;52.110;6.050;2023-05-10T05:08:28;36.83;;;23.55;;
37411;SDS011;23278;52.110;6.050;2023-05-10T05:10:54;40.15;;;23.38;;
37411;SDS011;23278;52.110;6.050;2023-05-10T05:13:20;37.55;;;24.05;;
37411;SDS011;23278;52.110;6.050;2023-05-10T05:15:46;37.45;;;23.35;;
37411;SDS011;23278;52.110;6.050;2023-05-10T05:18:12;40.42;;;23.08;;
37411;SDS011;23278;52.110;6.050;2023-05-10T05:20:38;32.50;;;20.15;;
37411;SDS011;23278;52.110;6.050;2023-05-10T05:23:04;32.80;;;21.20;;
37411;SDS011;23278;52.110;6.050;2023-05-10T05:25:30;36.60;;;22.10;;
37411;SDS011;23278;52.110;6.050;2023-05-10T05:27:56;38.53;;;23.00;;
37411;SDS011;23278;52.110;6.050;2023-05-10T05:30:22;34.97;;;22.17;;
37411;SDS011;23278;52.110;6.050;2023-05-10T05:32:48;34.88;;;21.77;;
37411;SDS011;23278;52.110;6.050;2023-05-10T05:35:14;36.72;;;22.70;;
37411;SDS011;23278;52.110;6.050;2023-05-10T05:37:40;37.95;;;22.80;;
37411;SDS011;23278;52.110;6.050;2023-05-10T05:40:06;37.17;;;22.55;;
37411;SDS011;23278;52.110;6.050;2023-05-10T05:42:32;37.65;;;23.10;;
37411;SDS011;23278;52.110;6.050;2023-05-10T05:44:58;43.60;;;27.52;;
37411;SDS011;23278;52.110;6.050;2023-05-10T05:47:24;45.85;;;25.90;;
37411;SDS011;23278;52.110;6.050;2023-05-10T05:49:50;45.05;;;26.55;;
37411;SDS011;23278;52.110;6.050;2023-05-10T05:52:16;44.00;;;26.48;;
37411;SDS011;23278;52.110;6.050;2023-05-10T05:54:43;56.97;;;28.70;;
37411;SDS011;23278;52.110;6.050;2023-05-10T05:57:09;47.50;;;25.50;;
37411;SDS011;23278;52.110;6.050;2023-05-10T05:59:34;36.08;;;21.80;;
37411;SDS011;23278;52.110;6.050;2023-05-10T06:02:00;39.05;;;23.40;;
37411;SDS011;23278;52.110;6.050;2023-05-10T06:04:27;40.45;;;24.00;;
37411;SDS011;23278;52.110;6.050;2023-05-10T06:06:53;36.13;;;21.65;;
37411;SDS011;23278;52.110;6.050;2023-05-10T06:09:18;31.02;;;21.35;;
37411;SDS011;23278;52.110;6.050;2023-05-10T06:11:44;41.75;;;24.77;;
37411;SDS011;23278;52.110;6.050;2023-05-10T06:14:10;33.17;;;21.20;;
37411;SDS011;23278;52.110;6.050;2023-05-10T06:16:36;36.75;;;22.38;;
37411;SDS011;23278;52.110;6.050;2023-05-10T06:19:02;33.60;;;21.02;;
37411;SDS011;23278;52.110;6.050;2023-05-10T06:21:28;38.75;;;21.90;;
37411;SDS011;23278;52.110;6.050;2023-05-10T06:23:55;31.38;;;20.20;;
37411;SDS011;23278;52.110;6.050;2023-05-10T06:26:21;38.22;;;23.85;;
37411;SDS011;23278;52.110;6.050;2023-05-10T06:28:47;32.92;;;21.70;;
37411;SDS011;23278;52.110;6.050;2023-05-10T06:31:13;35.85;;;21.48;;
37411;SDS011;23278;52.110;6.050;2023-05-10T06:33:39;35.88;;;21.20;;
37411;SDS011;23278;52.110;6.050;2023-05-10T06:36:05;38.08;;;21.02;;
37411;SDS011;23278;52.110;6.050;2023-05-10T06:38:31;40.25;;;24.15;;
37411;SDS011;23278;52.110;6.050;2023-05-10T06:40:57;46.72;;;24.48;;
37411;SDS011;23278;52.110;6.050;2023-05-10T06:43:23;44.63;;;24.35;;
37411;SDS011;23278;52.110;6.050;2023-05-10T06:45:51;42.50;;;23.20;;
37411;SDS011;23278;52.110;6.050;2023-05-10T06:48:17;44.22;;;25.48;;
37411;SDS011;23278;52.110;6.050;2023-05-10T06:50:43;48.83;;;26.10;;
37411;SDS011;23278;52.110;6.050;2023-05-10T06:53:09;50.75;;;26.88;;
37411;SDS011;23278;52.110;6.050;2023-05-10T06:55:36;44.63;;;25.58;;
37411;SDS011;23278;52.110;6.050;2023-05-10T06:58:03;48.17;;;25.73;;
37411;SDS011;23278;52.110;6.050;2023-05-10T07:00:29;41.63;;;24.30;;
37411;SDS011;23278;52.110;6.050;2023-05-10T07:02:55;45.17;;;25.52;;
37411;SDS011;23278;52.110;6.050;2023-05-10T07:05:21;47.92;;;26.35;;
37411;SDS011;23278;52.110;6.050;2023-05-10T07:07:47;41.55;;;23.00;;
37411;SDS011;23278;52.110;6.050;2023-05-10T07:10:13;46.13;;;23.38;;
37411;SDS011;23278;52.110;6.050;2023-05-10T07:12:39;40.97;;;22.10;;
37411;SDS011;23278;52.110;6.050;2023-05-10T07:15:05;45.42;;;24.40;;
37411;SDS011;23278;52.110;6.050;2023-05-10T07:17:32;45.97;;;23.75;;
37411;SDS011;23278;52.110;6.050;2023-05-10T07:19:58;45.88;;;26.65;;
37411;SDS011;23278;52.110;6.050;2023-05-10T07:22:25;37.22;;;21.33;;
37411;SDS011;23278;52.110;6.050;2023-05-10T07:24:51;43.92;;;24.77;;
37411;SDS011;23278;52.110;6.050;2023-05-10T07:27:17;42.65;;;21.75;;
37411;SDS011;23278;52.110;6.050;2023-05-10T07:29:43;38.95;;;21.63;;
37411;SDS011;23278;52.110;6.050;2023-05-10T07:32:10;42.42;;;22.75;;
37411;SDS011;23278;52.110;6.050;2023-05-10T07:34:36;34.65;;;19.30;;
37411;SDS011;23278;52.110;6.050;2023-05-10T07:37:01;52.60;;;26.33;;
37411;SDS011;23278;52.110;6.050;2023-05-10T07:39:28;47.47;;;25.40;;
37411;SDS011;23278;52.110;6.050;2023-05-10T07:41:54;35.03;;;19.45;;
37411;SDS011;23278;52.110;6.050;2023-05-10T07:44:21;31.17;;;18.42;;
37411;SDS011;23278;52.110;6.050;2023-05-10T07:46:47;36.55;;;21.17;;
37411;SDS011;23278;52.110;6.050;2023-05-10T07:49:13;36.17;;;19.80;;
37411;SDS011;23278;52.110;6.050;2023-05-10T07:51:39;27.05;;;16.20;;
37411;SDS011;23278;52.110;6.050;2023-05-10T07:54:06;32.63;;;18.45;;
37411;SDS011;23278;52.110;6.050;2023-05-10T07:56:33;37.90;;;20.02;;
37411;SDS011;23278;52.110;6.050;2023-05-10T07:58:59;38.30;;;21.13;;
37411;SDS011;23278;52.110;6.050;2023-05-10T08:01:29;31.83;;;18.65;;
37411;SDS011;23278;52.110;6.050;2023-05-10T08:03:56;34.15;;;18.90;;
37411;SDS011;23278;52.110;6.050;2023-05-10T08:06:22;30.42;;;16.40;;
37411;SDS011;23278;52.110;6.050;2023-05-10T08:08:49;29.80;;;17.80;;
37411;SDS011;23278;52.110;6.050;2023-05-10T08:11:16;33.50;;;18.45;;
37411;SDS011;23278;52.110;6.050;2023-05-10T08:13:43;28.00;;;16.55;;
37411;SDS011;23278;52.110;6.050;2023-05-10T08:16:10;32.58;;;18.15;;
37411;SDS011;23278;52.110;6.050;2023-05-10T08:18:36;32.15;;;17.00;;
37411;SDS011;23278;52.110;6.050;2023-05-10T08:21:03;39.50;;;21.60;;
37411;SDS011;23278;52.110;6.050;2023-05-10T08:23:29;40.58;;;22.00;;
37411;SDS011;23278;52.110;6.050;2023-05-10T08:25:55;36.33;;;19.63;;
37411;SDS011;23278;52.110;6.050;2023-05-10T08:28:22;38.60;;;21.55;;
37411;SDS011;23278;52.110;6.050;2023-05-10T08:30:49;37.75;;;19.92;;
37411;SDS011;23278;52.110;6.050;2023-05-10T08:33:15;34.88;;;20.95;;
37411;SDS011;23278;52.110;6.050;2023-05-10T08:35:43;31.15;;;18.65;;
37411;SDS011;23278;52.110;6.050;2023-05-10T08:38:09;36.40;;;20.88;;
37411;SDS011;23278;52.110;6.050;2023-05-10T08:40:35;33.88;;;20.73;;
37411;SDS011;23278;52.110;6.050;2023-05-10T08:43:06;29.83;;;19.73;;
37411;SDS011;23278;52.110;6.050;2023-05-10T08:45:37;29.50;;;18.10;;
37411;SDS011;23278;52.110;6.050;2023-05-10T08:48:06;29.33;;;16.70;;
37411;SDS011;23278;52.110;6.050;2023-05-10T08:50:37;26.13;;;16.58;;
37411;SDS011;23278;52.110;6.050;2023-05-10T08:53:06;20.98;;;13.65;;
37411;SDS011;23278;52.110;6.050;2023-05-10T08:55:34;19.17;;;13.60;;
37411;SDS011;23278;52.110;6.050;2023-05-10T08:58:04;23.90;;;13.52;;
37411;SDS011;23278;52.110;6.050;2023-05-10T09:00:35;18.80;;;12.97;;
37411;SDS011;23278;52.110;6.050;2023-05-10T09:03:05;19.67;;;14.02;;
37411;SDS011;23278;52.110;6.050;2023-05-10T09:05:31;19.42;;;12.85;;
37411;SDS011;23278;52.110;6.050;2023-05-10T09:07:58;18.08;;;12.80;;
37411;SDS011;23278;52.110;6.050;2023-05-10T09:10:25;20.45;;;14.43;;
37411;SDS011;23278;52.110;6.050;2023-05-10T09:12:53;18.77;;;12.75;;
37411;SDS011;23278;52.110;6.050;2023-05-10T09:15:21;16.83;;;12.48;;
37411;SDS011;23278;52.110;6.050;2023-05-10T09:17:47;16.95;;;12.68;;
37411;SDS011;23278;52.110;6.050;2023-05-10T09:20:15;18.08;;;13.00;;
37411;SDS011;23278;52.110;6.050;2023-05-10T09:22:42;16.08;;;11.05;;
37411;SDS011;23278;52.110;6.050;2023-05-10T09:25:13;18.45;;;10.60;;
37411;SDS011;23278;52.110;6.050;2023-05-10T09:27:40;12.68;;;9.68;;
37411;SDS011;23278;52.110;6.050;2023-05-10T09:30:10;13.95;;;9.20;;
37411;SDS011;23278;52.110;6.050;2023-05-10T09:32:48;15.75;;;9.95;;
37411;SDS011;23278;52.110;6.050;2023-05-10T09:35:16;11.98;;;9.25;;
37411;SDS011;23278;52.110;6.050;2023-05-10T09:37:44;12.32;;;9.10;;
37411;SDS011;23278;52.110;6.050;2023-05-10T09:40:13;10.85;;;8.95;;
37411;SDS011;23278;52.110;6.050;2023-05-10T09:42:42;9.73;;;7.85;;
37411;SDS011;23278;52.110;6.050;2023-05-10T09:45:15;9.18;;;8.27;;
37411;SDS011;23278;52.110;6.050;2023-05-10T09:47:41;13.35;;;8.50;;
37411;SDS011;23278;52.110;6.050;2023-05-10T09:50:07;10.75;;;7.63;;
37411;SDS011;23278;52.110;6.050;2023-05-10T09:55:20;11.68;;;8.52;;
37411;SDS011;23278;52.110;6.050;2023-05-10T09:57:48;11.52;;;7.55;;
37411;SDS011;23278;52.110;6.050;2023-05-10T10:00:18;9.95;;;7.25;;
37411;SDS011;23278;52.110;6.050;2023-05-10T10:02:46;8.10;;;7.22;;
37411;SDS011;23278;52.110;6.050;2023-05-10T10:05:13;7.68;;;6.53;;
37411;SDS011;23278;52.110;6.050;2023-05-10T10:07:40;9.93;;;7.63;;
37411;SDS011;23278;52.110;6.050;2023-05-10T10:10:06;8.93;;;6.00;;
37411;SDS011;23278;52.110;6.050;2023-05-10T10:12:37;8.05;;;6.30;;
37411;SDS011;23278;52.110;6.050;2023-05-10T10:15:03;7.50;;;5.93;;
37411;SDS011;23278;52.110;6.050;2023-05-10T10:17:30;9.20;;;6.70;;
37411;SDS011;23278;52.110;6.050;2023-05-10T10:19:57;6.00;;;5.40;;
37411;SDS011;23278;52.110;6.050;2023-05-10T10:22:24;10.30;;;6.10;;
37411;SDS011;23278;52.110;6.050;2023-05-10T10:24:50;7.95;;;5.38;;
37411;SDS011;23278;52.110;6.050;2023-05-10T10:35:36;6.97;;;6.10;;
37411;SDS011;23278;52.110;6.050;2023-05-10T10:38:02;8.10;;;6.13;;
37411;SDS011;23278;52.110;6.050;2023-05-10T10:40:29;8.52;;;7.15;;
37411;SDS011;23278;52.110;6.050;2023-05-10T10:42:57;7.97;;;6.50;;
37411;SDS011;23278;52.110;6.050;2023-05-10T10:45:23;6.68;;;5.50;;
37411;SDS011;23278;52.110;6.050;2023-05-10T10:48:21;9.90;;;6.80;;
37411;SDS011;23278;52.110;6.050;2023-05-10T10:50:55;7.50;;;6.45;;
37411;SDS011;23278;52.110;6.050;2023-05-10T10:53:25;8.63;;;7.55;;
37411;SDS011;23278;52.110;6.050;2023-05-10T10:56:02;9.30;;;8.43;;
37411;SDS011;23278;52.110;6.050;2023-05-10T10:58:38;7.63;;;6.93;;
37411;SDS011;23278;52.110;6.050;2023-05-10T11:01:12;12.13;;;8.40;;
37411;SDS011;23278;52.110;6.050;2023-05-10T11:04:16;8.90;;;7.10;;
37411;SDS011;23278;52.110;6.050;2023-05-10T11:06:40;8.98;;;6.70;;
37411;SDS011;23278;52.110;6.050;2023-05-10T11:09:11;11.32;;;8.02;;
37411;SDS011;23278;52.110;6.050;2023-05-10T11:11:53;12.85;;;8.80;;
37411;SDS011;23278;52.110;6.050;2023-05-10T11:14:23;7.82;;;6.55;;
37411;SDS011;23278;52.110;6.050;2023-05-10T11:16:50;7.95;;;7.07;;
37411;SDS011;23278;52.110;6.050;2023-05-10T11:19:17;10.57;;;7.85;;
37411;SDS011;23278;52.110;6.050;2023-05-10T11:24:14;8.50;;;6.80;;
37411;SDS011;23278;52.110;6.050;2023-05-10T11:26:41;8.52;;;5.70;;
37411;SDS011;23278;52.110;6.050;2023-05-10T11:29:08;6.72;;;6.00;;
37411;SDS011;23278;52.110;6.050;2023-05-10T11:31:34;6.40;;;5.00;;
37411;SDS011;23278;52.110;6.050;2023-05-10T11:34:06;4.20;;;3.80;;
37411;SDS011;23278;52.110;6.050;2023-05-10T11:36:33;6.50;;;4.85;;
37411;SDS011;23278;52.110;6.050;2023-05-10T11:39:01;5.38;;;4.07;;
37411;SDS011;23278;52.110;6.050;2023-05-10T11:41:28;5.63;;;3.67;;
37411;SDS011;23278;52.110;6.050;2023-05-10T11:43:56;4.22;;;3.10;;
37411;SDS011;23278;52.110;6.050;2023-05-10T11:46:23;4.22;;;3.40;;
37411;SDS011;23278;52.110;6.050;2023-05-10T11:48:55;5.75;;;3.58;;
37411;SDS011;23278;52.110;6.050;2023-05-10T11:51:27;4.32;;;3.50;;
37411;SDS011;23278;52.110;6.050;2023-05-10T11:53:54;3.50;;;2.60;;
37411;SDS011;23278;52.110;6.050;2023-05-10T11:56:21;4.65;;;2.45;;
37411;SDS011;23278;52.110;6.050;2023-05-10T11:58:52;3.00;;;2.22;;
37411;SDS011;23278;52.110;6.050;2023-05-10T12:01:23;3.65;;;2.20;;
37411;SDS011;23278;52.110;6.050;2023-05-10T12:03:50;2.47;;;2.20;;
37411;SDS011;23278;52.110;6.050;2023-05-10T12:06:21;4.28;;;2.25;;
37411;SDS011;23278;52.110;6.050;2023-05-10T12:08:47;3.95;;;1.80;;
37411;SDS011;23278;52.110;6.050;2023-05-10T12:11:17;4.07;;;2.17;;
37411;SDS011;23278;52.110;6.050;2023-05-10T12:13:44;3.35;;;1.70;;
37411;SDS011;23278;52.110;6.050;2023-05-10T12:16:15;3.25;;;1.80;;
37411;SDS011;23278;52.110;6.050;2023-05-10T12:18:48;2.70;;;1.58;;
37411;SDS011;23278;52.110;6.050;2023-05-10T12:21:19;3.53;;;2.53;;
37411;SDS011;23278;52.110;6.050;2023-05-10T12:23:46;2.90;;;1.50;;
37411;SDS011;23278;52.110;6.050;2023-05-10T12:26:15;2.63;;;1.42;;
37411;SDS011;23278;52.110;6.050;2023-05-10T12:28:41;2.95;;;2.15;;
37411;SDS011;23278;52.110;6.050;2023-05-10T12:31:07;2.88;;;1.98;;
37411;SDS011;23278;52.110;6.050;2023-05-10T12:33:43;5.30;;;2.33;;
37411;SDS011;23278;52.110;6.050;2023-05-10T12:36:13;3.10;;;2.33;;
37411;SDS011;23278;52.110;6.050;2023-05-10T12:38:41;3.50;;;1.90;;
37411;SDS011;23278;52.110;6.050;2023-05-10T12:41:12;2.95;;;1.77;;
37411;SDS011;23278;52.110;6.050;2023-05-10T12:43:40;2.85;;;1.83;;
37411;SDS011;23278;52.110;6.050;2023-05-10T12:48:43;3.13;;;1.52;;
37411;SDS011;23278;52.110;6.050;2023-05-10T12:51:10;1.73;;;1.52;;
37411;SDS011;23278;52.110;6.050;2023-05-10T12:53:39;2.15;;;1.80;;
37411;SDS011;23278;52.110;6.050;2023-05-10T12:56:05;3.20;;;1.77;;
37411;SDS011;23278;52.110;6.050;2023-05-10T12:58:31;3.13;;;2.08;;
37411;SDS011;23278;52.110;6.050;2023-05-10T13:00:58;1.95;;;1.55;;
37411;SDS011;23278;52.110;6.050;2023-05-10T13:03:27;4.38;;;2.45;;
37411;SDS011;23278;52.110;6.050;2023-05-10T13:05:53;3.75;;;2.42;;
37411;SDS011;23278;52.110;6.050;2023-05-10T13:08:19;3.45;;;2.53;;
37411;SDS011;23278;52.110;6.050;2023-05-10T13:10:45;3.10;;;2.58;;
37411;SDS011;23278;52.110;6.050;2023-05-10T13:13:11;3.00;;;2.30;;
37411;SDS011;23278;52.110;6.050;2023-05-10T13:15:37;4.47;;;3.47;;
37411;SDS011;23278;52.110;6.050;2023-05-10T13:18:03;4.05;;;3.30;;
37411;SDS011;23278;52.110;6.050;2023-05-10T13:20:29;3.70;;;2.30;;
37411;SDS011;23278;52.110;6.050;2023-05-10T13:22:55;5.30;;;2.45;;
37411;SDS011;23278;52.110;6.050;2023-05-10T13:25:21;3.83;;;3.25;;
37411;SDS011;23278;52.110;6.050;2023-05-10T13:27:47;3.67;;;3.38;;
37411;SDS011;23278;52.110;6.050;2023-05-10T13:30:13;3.72;;;2.75;;
37411;SDS011;23278;52.110;6.050;2023-05-10T13:32:39;3.75;;;3.30;;
37411;SDS011;23278;52.110;6.050;2023-05-10T13:35:05;3.08;;;2.15;;
37411;SDS011;23278;52.110;6.050;2023-05-10T13:37:31;3.63;;;1.92;;
37411;SDS011;23278;52.110;6.050;2023-05-10T13:40:01;3.63;;;2.75;;
37411;SDS011;23278;52.110;6.050;2023-05-10T13:42:27;2.53;;;1.85;;
37411;SDS011;23278;52.110;6.050;2023-05-10T13:44:53;3.25;;;1.90;;
37411;SDS011;23278;52.110;6.050;2023-05-10T13:47:20;2.47;;;1.98;;
37411;SDS011;23278;52.110;6.050;2023-05-10T13:49:46;3.65;;;2.30;;
37411;SDS011;23278;52.110;6.050;2023-05-10T13:52:13;3.17;;;2.42;;
37411;SDS011;23278;52.110;6.050;2023-05-10T13:54:39;2.83;;;1.98;;
37411;SDS011;23278;52.110;6.050;2023-05-10T13:57:05;3.10;;;2.25;;
37411;SDS011;23278;52.110;6.050;2023-05-10T13:59:31;2.90;;;1.92;;
37411;SDS011;23278;52.110;6.050;2023-05-10T14:01:58;2.70;;;1.58;;
37411;SDS011;23278;52.110;6.050;2023-05-10T14:04:25;3.00;;;2.38;;
37411;SDS011;23278;52.110;6.050;2023-05-10T14:06:50;2.35;;;1.67;;
37411;SDS011;23278;52.110;6.050;2023-05-10T14:09:18;4.15;;;1.95;;
37411;SDS011;23278;52.110;6.050;2023-05-10T14:11:44;4.38;;;2.28;;
37411;SDS011;23278;52.110;6.050;2023-05-10T14:14:10;2.95;;;1.52;;
37411;SDS011;23278;52.110;6.050;2023-05-10T14:16:38;2.92;;;1.40;;
37411;SDS011;23278;52.110;6.050;2023-05-10T14:19:06;3.35;;;1.00;;
37411;SDS011;23278;52.110;6.050;2023-05-10T14:21:32;2.55;;;1.45;;
37411;SDS011;23278;52.110;6.050;2023-05-10T14:23:58;3.53;;;1.67;;
37411;SDS011;23278;52.110;6.050;2023-05-10T14:26:24;2.35;;;1.30;;
37411;SDS011;23278;52.110;6.050;2023-05-10T14:28:51;3.08;;;1.48;;
37411;SDS011;23278;52.110;6.050;2023-05-10T14:31:17;2.85;;;1.20;;
37411;SDS011;23278;52.110;6.050;2023-05-10T14:33:46;3.60;;;1.67;;
37411;SDS011;23278;52.110;6.050;2023-05-10T14:36:12;4.97;;;1.80;;
37411;SDS011;23278;52.110;6.050;2023-05-10T14:38:39;2.90;;;1.70;;
37411;SDS011;23278;52.110;6.050;2023-05-10T14:41:05;3.10;;;1.85;;
37411;SDS011;23278;52.110;6.050;2023-05-10T14:43:32;3.25;;;1.63;;
37411;SDS011;23278;52.110;6.050;2023-05-10T14:45:58;3.70;;;2.08;;
37411;SDS011;23278;52.110;6.050;2023-05-10T14:48:25;2.40;;;1.70;;
37411;SDS011;23278;52.110;6.050;2023-05-10T14:50:51;4.38;;;2.47;;
37411;SDS011;23278;52.110;6.050;2023-05-10T14:53:18;2.53;;;1.75;;
37411;SDS011;23278;52.110;6.050;2023-05-10T14:55:44;3.83;;;2.42;;
37411;SDS011;23278;52.110;6.050;2023-05-10T14:58:10;4.40;;;1.95;;
37411;SDS011;23278;52.110;6.050;2023-05-10T15:00:36;2.30;;;1.50;;
37411;SDS011;23278;52.110;6.050;2023-05-10T15:03:02;4.32;;;1.85;;
37411;SDS011;23278;52.110;6.050;2023-05-10T15:05:28;3.50;;;1.80;;
37411;SDS011;23278;52.110;6.050;2023-05-10T15:07:54;3.88;;;1.92;;
37411;SDS011;23278;52.110;6.050;2023-05-10T15:10:21;2.63;;;1.65;;
37411;SDS011;23278;52.110;6.050;2023-05-10T15:12:47;2.97;;;1.70;;
37411;SDS011;23278;52.110;6.050;2023-05-10T15:15:13;2.67;;;1.40;;